VCBIFIMP

Guest
Details From VCBI - Bandaranaike Intl Colombo
To FIMP - Sir Seewoosagur Ramgoolam Intl
Flight Number -
Tags Generated
Created
Modified
Stats Distance 2,113 nm / 3,914 km
Max Altitude 0 ft / 0 m
Waypoints 3
Social Downloads 1
Likes 0
Share VATSIM

Download

Looking for another format? Having issues loading an existing format? Contact us
Advertisement - Login to hide

Notes

Generated

Route

VCBI R1675 FIMP

ID Type Via Altitude Latitude Longitude Leg Dist Tot Dist Heading (true) Name
O VCBI APT - 0 ft / 0 m 7.16874˚ 79.87491˚ - 0 nm - -
R1675 FIX - 0 ft / 0 m -20.42467˚ 57.67206˚ 2113 nm 2113 nm 218° / 221° -
O FIMP APT - 0 ft / 0 m -20.42332˚ 57.66925˚ 0 nm 2113 nm 297° / 297° -

Altitude Profile

Advertisement - Login to hide

Weather


0- 5 10 15 20 25 30 35+ Temperature / ° C

Clouds and Precipitation
Forecast for 2017-12-16 06:00 UTC. Updated an hour ago

Ground ~20,000 ft ~40,000 ft Winds

VCBI

Details ICAO VCBI (CMB)
Name BANDARANAIKE INTL COLOMBO
Region Sri Lanka
Timezone Asia/Colombo (UTC+5.5)
Stats Elevation 30 ft / 9 m (AMSL)
Location 7.180754° 79.884118°
Runways 1
Magnetic Variation 2.067° W

METAR

VCBI 160310Z 04005KT 7000 FEW016 25/23 Q1015 NOSIG

Decode

TAF

Not found

Departure Runways

ID Width Length Bearing (true) Bearing (mag) Surface Threshold Offset Overrun Length
04 148 ft / 45 m 11,018 ft / 3,358 m 37.25° 39.32° Asphalt 0 ft / 0 m 215 ft / 66 m
22 148 ft / 45 m 11,018 ft / 3,358 m 217.25° 219.32° Asphalt 0 ft / 0 m 300 ft / 91 m

FIMP

Details ICAO FIMP (MRU)
Name SIR SEEWOOSAGUR RAMGOOLAM INTL
Region Mauritius
Timezone Indian/Mauritius (UTC+4.0)
Stats Elevation 186 ft / 57 m (AMSL)
Location -20.430235° 57.683602°
Runways 1
Magnetic Variation 18.412° W

METAR

FIMP 160400Z 05007KT 9999 FEW018 BKN250 28/21 Q1017

Decode

TAF

TAF FIMP 152350Z 1600/1706 06008KT 9999 SCT016 PROB30 TEMPO 1618/1702 7000 -SHRA BKN015 BKN050

Decode

Destination Runways

ID Width Length Bearing (true) Bearing (mag) Surface Threshold Offset Overrun Length
14 148 ft / 45 m 11,037 ft / 3,364 m 117.22° 135.63° Asphalt 1,082 ft / 330 m 200 ft / 61 m
32 148 ft / 45 m 11,037 ft / 3,364 m 297.21° 315.62° Asphalt 0 ft / 0 m 0 ft / 0 m

Approach Navaids

Runway Type Ident Frequency Range Bearing (true) Bearing (mag) Slope Elevation
14 Localiser IPL 109.90 MHz 18 nm / 33 km 117.52° 135.93° - 186 ft / 57 m (AMSL)
14 Glidescope IPL 109.90 MHz 10 nm / 19 km 117.22° 135.63° 3.50° 186 ft / 57 m (AMSL)
14 DME IPL 109.90 MHz 18 nm / 33 km - - - 186 ft / 57 m (AMSL)

Popular Alternatives